ADDS METAR Data INFO
IDs: Format: Raw Decoded Include TAF

Data at: 0833 UTC 21 Oct 2017

KRSN 210815Z AUTO 00000KT 10SM CLR 19/17 A3006 RMK AO2 T01850173
KRSN 210755Z AUTO 16003KT 10SM CLR 19/18 A3007 RMK AO2 T01860175
KRSN 210735Z AUTO 00000KT 10SM SCT045 18/17 A3007 RMK AO2 T01820171
KRSN 210715Z AUTO 16003KT 10SM CLR 18/17 A3007 RMK AO2 T01810168
KRSN 210655Z AUTO 15004KT 10SM CLR 18/17 A3007 RMK AO2 T01790165
KRSN 210635Z AUTO 18004KT 10SM CLR 18/17 A3007 RMK AO2 T01770165
KRSN 210615Z AUTO 16003KT 10SM CLR 18/17 A3007 RMK AO2 T01800165
KRSN 210555Z AUTO 00000KT 10SM CLR 19/17 A3007 RMK AO2 T01860165 10199 20178 402340120
KRSN 210535Z AUTO 14003KT 10SM CLR 19/17 A3007 RMK AO2 T01900165
KRSN 210515Z AUTO 14004KT 10SM CLR 19/17 A3007 RMK AO2 T01900165
KRSN 210455Z AUTO 00000KT 10SM SCT030 19/16 A3008 RMK AO2 T01920164
KRSN 210435Z AUTO 00000KT 10SM CLR 19/16 A3007 RMK AO2 T01900162
KRSN 210415Z AUTO 00000KT 10SM CLR 19/16 A3008 RMK AO2 T01860162
KRSN 210355Z AUTO 00000KT 10SM CLR 19/16 A3008 RMK AO2 T01870162
KRSN 210335Z AUTO 00000KT 10SM CLR 18/16 A3008 RMK AO2 T01840161
KRSN 210315Z AUTO 00000KT 10SM CLR 19/16 A3008 RMK AO2 T01850161
KRSN 210255Z AUTO 00000KT 10SM CLR 18/16 A3008 RMK AO2 T01810161
KRSN 210235Z AUTO 00000KT 10SM CLR 19/16 A3008 RMK AO2 T01870160
KRSN 210215Z AUTO 00000KT 10SM CLR 19/16 A3008 RMK AO2 T01860161
KRSN 210155Z AUTO 00000KT 10SM CLR 19/16 A3009 RMK AO2 LTG DSNT S T01860162
KRSN 210135Z AUTO 00000KT 10SM CLR 19/17 A3008 RMK AO2 T01870165
KRSN 210115Z AUTO 00000KT 10SM CLR 19/16 A3009 RMK AO2 T01920164
KRSN 210055Z AUTO 00000KT 10SM CLR 19/16 A3008 RMK AO2 T01930163
KRSN 210035Z AUTO 00000KT 10SM CLR 19/17 A3008 RMK AO2 T01940166
KRSN 210015Z AUTO 00000KT 10SM CLR 19/17 A3009 RMK AO2 T01910170
KRSN 202355Z AUTO 00000KT 10SM CLR 20/17 A3008 RMK AO2 T01970170 10234 20196
KRSN 202335Z AUTO 00000KT 10SM CLR 21/17 A3009 RMK AO2 T02060172
KRSN 202315Z AUTO 00000KT 10SM CLR 22/17 A3008 RMK AO2 T02150166
KRSN 202255Z AUTO 00000KT 10SM CLR 22/17 A3009 RMK AO2 LTG DSNT S T02220168
KRSN 202235Z AUTO 00000KT 10SM CLR 23/16 A3009 RMK AO2 LTG DSNT S T02250163
KRSN 202215Z AUTO 00000KT 10SM CLR 23/16 A3010 RMK AO2 LTG DSNT S T02280162
KRSN 202155Z AUTO 00000KT 10SM CLR 23/16 A3012 RMK AO2 T02320158
KRSN 202135Z AUTO 00000KT 10SM CLR 23/16 A3012 RMK AO2 T02310160
KRSN 202115Z AUTO 11003KT 10SM CLR 23/16 A3012 RMK AO2 LTG DSNT S T02310157
KRSN 202055Z AUTO 00000KT 10SM CLR 23/16 A3012 RMK AO2 T02330159
KRSN 202035Z AUTO 00000KT 10SM CLR 23/16 A3012 RMK AO2 LTG DSNT S T02300158
KRSN 202015Z AUTO 00000KT 10SM CLR 23/16 A3012 RMK AO2 LTG DSNT S T02290159
KRSN 201955Z AUTO 00000KT 10SM CLR 23/16 A3012 RMK AO2 T02280159
KRSN 201935Z AUTO 00000KT 10SM CLR 23/16 A3013 RMK AO2 T02250155
KRSN 201915Z AUTO 11004KT 10SM CLR 23/16 A3013 RMK AO2 LTG DSNT S T02250155
KRSN 201855Z AUTO 08004KT 10SM CLR 23/16 A3013 RMK AO2 LTG DSNT S T02250157
KRSN 201835Z AUTO 10004KT 10SM CLR 23/16 A3015 RMK AO2 T02250155
KRSN 201815Z AUTO 11006KT 10SM CLR 23/15 A3015 RMK AO2 LTG DSNT S T02250154
KRSN 201755Z AUTO 11005KT 10SM CLR 22/16 A3016 RMK AO2 T02210155 10222 20125
KRSN 201735Z AUTO 12004KT 10SM CLR 22/16 A3018 RMK AO2 LTG DSNT S T02200156
KRSN 201715Z AUTO 13006KT 10SM CLR 22/16 A3020 RMK AO2 LTG DSNT S T02150156
KRSN 201655Z AUTO 00000KT 10SM CLR 21/16 A3022 RMK AO2 LTG DSNT S T02060158
KRSN 201635Z AUTO 00000KT 10SM CLR 20/16 A3022 RMK AO2 LTG DSNT S T01990156
KRSN 201615Z AUTO 00000KT 10SM CLR 19/16 A3023 RMK AO2 T01930156
KRSN 201555Z AUTO 16003KT 10SM CLR 19/15 A3023 RMK AO2 LTG DSNT S T01870153
KRSN 201535Z AUTO 13004KT 10SM CLR 18/15 A3022 RMK AO2 LTG DSNT S T01830153
KRSN 201515Z AUTO 15003KT 10SM CLR 18/15 A3022 RMK AO2 T01790152
KRSN 201455Z AUTO 00000KT 10SM CLR 18/15 A3022 RMK AO2 T01750150
KRSN 201435Z AUTO 00000KT 10SM CLR 17/15 A3022 RMK AO2 T01660148
KRSN 201415Z AUTO 00000KT 10SM CLR 16/14 A3022 RMK AO2 T01560143
KRSN 201355Z AUTO 00000KT 10SM CLR 15/14 A3021 RMK AO2 T01500140
KRSN 201335Z AUTO 00000KT 10SM CLR 15/14 A3021 RMK AO2 T01450138
KRSN 201315Z AUTO 00000KT 7SM CLR 13/13 A3021 RMK AO2 T01340127
KRSN 201255Z AUTO 00000KT 10SM CLR 13/13 A3022 RMK AO2 LTG DSNT S T01330126
KRSN 201235Z AUTO 00000KT 7SM CLR 13/12 A3021 RMK AO2 LTG DSNT S T01290121
KRSN 201215Z AUTO 00000KT 10SM CLR 13/12 A3020 RMK AO2 T01270120
KRSN 201155Z AUTO 00000KT 10SM CLR 13/12 A3019 RMK AO2 LTG DSNT S 70001 T01260119 10157 20120
KRSN 201135Z AUTO 00000KT 7SM CLR 13/12 A3020 RMK AO2 LTG DSNT S AND SW T01260118
KRSN 201115Z AUTO 00000KT 10SM CLR 13/12 A3019 RMK AO2 T01260120
KRSN 201055Z AUTO 00000KT 10SM CLR 13/12 A3019 RMK AO2 T01250118
KRSN 201035Z AUTO 00000KT 10SM CLR 13/12 A3019 RMK AO2 T01250118
KRSN 201015Z AUTO 00000KT 10SM CLR 13/12 A3019 RMK AO2 T01270120
KRSN 200955Z AUTO 00000KT 10SM CLR 13/12 A3019 RMK AO2 T01250117
KRSN 200935Z AUTO 00000KT 10SM CLR 13/12 A3018 RMK AO2 T01260118
KRSN 200915Z AUTO 00000KT 10SM CLR 13/12 A3019 RMK AO2 T01260117
KRSN 200855Z AUTO 00000KT 10SM CLR 13/12 A3019 RMK AO2 T01250116
KRSN 200835Z AUTO 00000KT 10SM CLR 13/12 A3019 RMK AO2 LTG DSNT S T01250115
KRSN 200815Z AUTO 00000KT 10SM CLR 13/12 A3019 RMK AO2 LTG DSNT S T01250115
KRSN 200755Z AUTO 13003KT 10SM CLR 15/13 A3019 RMK AO2 T01530128
KRSN 200735Z AUTO 00000KT 10SM CLR 13/12 A3020 RMK AO2 T01300121
KRSN 200715Z AUTO 00000KT 10SM CLR 12/11 A3020 RMK AO2 T01230114
KRSN 200655Z AUTO 00000KT 10SM CLR 13/12 A3021 RMK AO2 T01260118
KRSN 200635Z AUTO 00000KT 10SM CLR 12/12 A3020 RMK AO2 T01240116
KRSN 200615Z AUTO 00000KT 10SM CLR 12/11 A3020 RMK AO2 T01220112
KRSN 200555Z AUTO 00000KT 10SM CLR 12/12 A3020 RMK AO2 T01220115 10176 20122 402550082
KRSN 200535Z AUTO 00000KT 10SM CLR 13/12 A3021 RMK AO2 T01270117
KRSN 200515Z AUTO 00000KT 10SM CLR 13/12 A3021 RMK AO2 T01260120
KRSN 200455Z AUTO 00000KT 10SM CLR 13/12 A3021 RMK AO2 T01290119
KRSN 200435Z AUTO 00000KT 10SM CLR 13/12 A3021 RMK AO2 T01310121
KRSN 200415Z AUTO 00000KT 10SM CLR 13/12 A3021 RMK AO2 T01300121
KRSN 200355Z AUTO 00000KT 10SM CLR 13/13 A3021 RMK AO2 T01340126
KRSN 200335Z AUTO 00000KT 10SM CLR 13/13 A3020 RMK AO2 T01330126
KRSN 200315Z AUTO 00000KT 10SM CLR 13/13 A3020 RMK AO2 T01330126
KRSN 200255Z AUTO 00000KT 10SM CLR 13/13 A3020 RMK AO2 T01330126
KRSN 200235Z AUTO 00000KT 10SM CLR 14/13 A3020 RMK AO2 LTG DSNT SW T01370130
KRSN 200215Z AUTO 00000KT 10SM CLR 15/13 A3020 RMK AO2 LTG DSNT S T01450133
KRSN 200155Z AUTO 00000KT 10SM CLR 15/14 A3020 RMK AO2 T01460139
KRSN 200135Z AUTO 00000KT 10SM CLR 15/14 A3020 RMK AO2 T01500141
KRSN 200115Z AUTO 00000KT 10SM CLR 15/14 A3020 RMK AO2 T01510142
KRSN 200055Z AUTO 00000KT 10SM CLR 16/15 A3020 RMK AO2 LTG DSNT S T01590148
KRSN 200035Z AUTO 00000KT 10SM CLR 16/15 A3020 RMK AO2 T01620150
KRSN 200015Z AUTO 00000KT 10SM CLR 17/15 A3019 RMK AO2 T01700154
KRSN 192355Z AUTO 00000KT 10SM CLR 18/16 A3019 RMK AO2 T01770158 10255 20177
KRSN 192335Z AUTO 00000KT 10SM CLR 19/16 A3018 RMK AO2 T01940161
KRSN 192315Z AUTO 00000KT 10SM CLR 21/16 A3019 RMK AO2 T02050162
KRSN 192255Z AUTO 00000KT 10SM CLR 24/14 A3019 RMK AO2 T02350138
KRSN 192235Z AUTO 00000KT 10SM CLR 24/13 A3019 RMK AO2 T02400133
KRSN 192215Z AUTO 00000KT 10SM CLR 24/13 A3018 RMK AO2 T02380134
KRSN 192155Z AUTO 00000KT 10SM CLR 24/13 A3019 RMK AO2 T02400128
KRSN 192135Z AUTO 07003KT 10SM CLR 25/13 A3019 RMK AO2 T02450126
KRSN 192115Z AUTO 06005KT 10SM CLR 25/12 A3019 RMK AO2 T02470124
KRSN 192055Z AUTO 08006KT 10SM CLR 25/13 A3019 RMK AO2 T02510134
KRSN 192035Z AUTO 00000KT 10SM CLR 25/13 A3019 RMK AO2 T02540133